Time;durP1;ratioP1;P1;durP2;ratioP2;P2;SDS_P1;SDS_P2;PMS_P1;PMS_P2;Temp;Humidity;BMP_temperature;BMP_pressure;BME280_temperature;BME280_humidity;BME280_pressure;Samples;Min_cycle;Max_cycle;Signal;HPM_P1;HPM_P2
2023/06/12 00:02:28;;;;;;;10.57;4.40;;;19.70;84.70;;;;;;5048720;28;19966;-83
2023/06/12 00:04:54;;;;;;;8.65;3.90;;;18.90;83.90;;;;;;5057153;28;20045;-83
2023/06/12 00:07:21;;;;;;;14.10;4.50;;;19.00;83.80;;;;;;5074830;28;20557;-83
2023/06/12 00:09:47;;;;;;;11.38;4.20;;;19.70;84.60;;;;;;5074569;28;20071;-83
2023/06/12 00:12:28;;;;;;;12.00;4.63;;;18.80;84.30;;;;;;5075063;28;20168;-83
2023/06/12 00:15:12;;;;;;;9.13;3.50;;;18.70;85.20;;;;;;5074698;28;20395;-83
2023/06/12 00:17:38;;;;;;;11.98;4.00;;;19.50;85.80;;;;;;5056247;28;20048;-83
2023/06/12 00:20:19;;;;;;;10.52;4.25;;;18.70;84.90;;;;;;5073156;28;20500;-83
2023/06/12 00:22:45;;;;;;;13.18;3.95;;;18.60;85.20;;;;;;5057049;28;20051;-83
2023/06/12 00:25:10;;;;;;;10.10;3.80;;;18.80;85.30;;;;;;5073454;28;20056;-83
2023/06/12 00:27:51;;;;;;;10.07;4.40;;;18.70;85.60;;;;;;5057078;28;20041;-83
2023/06/12 00:30:17;;;;;;;9.07;3.95;;;18.50;85.70;;;;;;5055310;28;20036;-83
2023/06/12 00:32:42;;;;;;;10.98;3.75;;;18.50;86.10;;;;;;5057069;28;20435;-82
2023/06/12 00:35:08;;;;;;;9.75;4.32;;;18.40;86.20;;;;;;5074268;28;20041;-83
2023/06/12 00:37:50;;;;;;;9.50;3.88;;;18.40;86.40;;;;;;5073442;28;20055;-83
2023/06/12 00:40:16;;;;;;;10.05;4.35;;;18.30;87.00;;;;;;5074324;28;20036;-83
2023/06/12 00:43:00;;;;;;;10.60;4.03;;;18.30;86.50;;;;;;5056850;28;20098;-83
2023/06/12 00:45:26;;;;;;;14.57;4.30;;;18.30;87.50;;;;;;5072994;28;20048;-83
2023/06/12 00:48:05;;;;;;;10.00;4.00;;;18.20;86.90;;;;;;5041469;28;20132;-83
2023/06/12 00:50:31;;;;;;;9.27;3.80;;;18.20;87.80;;;;;;5036753;28;20060;-83
2023/06/12 00:53:12;;;;;;;10.60;4.03;;;18.50;87.50;;;;;;5079361;22;20407;-83
2023/06/12 00:55:38;;;;;;;10.57;4.05;;;18.00;87.80;;;;;;5025768;28;20049;-83
2023/06/12 00:58:05;;;;;;;11.38;3.83;;;18.00;87.60;;;;;;5016770;28;20063;-83
2023/06/12 01:00:49;;;;;;;11.07;3.80;;;18.10;88.20;;;;;;5033823;28;20045;-83
2023/06/12 01:03:15;;;;;;;13.48;4.03;;;17.90;88.50;;;;;;5026672;28;20049;-83
2023/06/12 01:05:44;;;;;;;9.38;3.75;;;18.30;88.60;;;;;;5042478;28;20046;-84
2023/06/12 01:08:34;;;;;;;9.18;4.13;;;18.50;89.00;;;;;;5034047;28;20124;-83
2023/06/12 01:11:17;;;;;;;8.52;3.70;;;17.90;89.50;;;;;;5029335;28;20611;-83
2023/06/12 01:13:43;;;;;;;9.82;3.92;;;17.70;89.00;;;;;;5053668;28;20086;-83
2023/06/12 01:16:09;;;;;;;9.00;3.90;;;17.70;89.20;;;;;;5053563;28;20049;-84
2023/06/12 01:18:49;;;;;;;11.40;4.38;;;17.60;89.60;;;;;;5054091;28;20393;-83
2023/06/12 01:21:21;;;;;;;11.18;4.10;;;17.50;90.20;;;;;;5052582;28;20448;-83
2023/06/12 01:24:12;;;;;;;11.55;3.80;;;17.50;90.00;;;;;;5054049;28;20045;-84
2023/06/12 01:27:27;;;;;;;12.82;4.00;;;17.50;90.10;;;;;;5017748;28;20144;-83
2023/06/12 01:30:23;;;;;;;10.35;3.80;;;17.40;90.40;;;;;;5033682;28;20045;-84
2023/06/12 01:33:03;;;;;;;10.82;3.80;;;17.40;90.60;;;;;;5033537;28;20077;-83
2023/06/12 01:35:35;;;;;;;12.60;4.22;;;17.30;90.60;;;;;;5032910;28;20041;-83
2023/06/12 01:38:21;;;;;;;11.90;3.65;;;17.30;90.40;;;;;;5033990;28;20099;-83
2023/06/12 01:40:50;;;;;;;10.57;3.90;;;17.30;91.00;;;;;;5015080;28;20061;-83
2023/06/12 01:43:16;;;;;;;11.50;4.10;;;17.60;91.00;;;;;;5015387;28;20100;-83
2023/06/12 01:45:42;;;;;;;12.55;4.03;;;17.10;90.80;;;;;;5015594;28;20448;-83
2023/06/12 01:48:08;;;;;;;10.63;4.10;;;17.10;91.00;;;;;;5051629;28;20041;-83
2023/06/12 01:50:34;;;;;;;9.90;3.78;;;17.90;91.30;;;;;;5028459;28;20061;-83
2023/06/12 01:52:59;;;;;;;10.13;3.70;;;17.00;91.20;;;;;;5014739;28;20057;-83
2023/06/12 01:55:27;;;;;;;9.32;4.40;;;17.00;91.30;;;;;;5032289;28;20045;-83
2023/06/12 01:58:13;;;;;;;11.27;4.45;;;17.00;91.50;;;;;;5015581;28;20128;-83
2023/06/12 02:00:39;;;;;;;9.85;3.85;;;17.70;92.00;;;;;;5021549;28;20508;-83
2023/06/12 02:03:17;;;;;;;11.70;4.00;;;16.90;91.60;;;;;;5043395;28;20122;-83
2023/06/12 02:05:42;;;;;;;10.60;3.70;;;16.90;92.10;;;;;;5044559;28;20068;-83
2023/06/12 02:08:17;;;;;;;9.85;3.80;;;16.80;91.80;;;;;;5032234;28;20049;-84
2023/06/12 02:10:43;;;;;;;9.77;3.83;;;16.70;92.10;;;;;;5013914;28;20075;-84
2023/06/12 02:13:08;;;;;;;11.77;4.18;;;16.70;92.00;;;;;;5014780;28;20139;-84
2023/06/12 02:15:35;;;;;;;8.93;3.90;;;16.80;92.20;;;;;;5032672;28;20104;-84
2023/06/12 02:18:15;;;;;;;10.85;4.03;;;16.70;92.30;;;;;;5032370;28;20083;-83
2023/06/12 02:20:42;;;;;;;9.15;3.63;;;17.00;93.00;;;;;;5015124;28;20045;-84
2023/06/12 02:23:19;;;;;;;9.35;4.15;;;16.60;92.50;;;;;;5032060;28;20053;-84
2023/06/12 02:25:45;;;;;;;10.73;4.18;;;17.20;93.10;;;;;;5015525;28;20480;-83
2023/06/12 02:28:11;;;;;;;9.95;3.83;;;16.50;92.70;;;;;;5032702;28;20124;-84
2023/06/12 02:30:37;;;;;;;11.27;4.10;;;16.50;92.80;;;;;;5032235;28;20053;-84
2023/06/12 02:33:18;;;;;;;9.70;3.67;;;16.50;92.90;;;;;;5015123;28;20485;-84
2023/06/12 02:35:44;;;;;;;9.88;3.83;;;16.90;93.40;;;;;;5039038;28;20036;-84
2023/06/12 02:38:09;;;;;;;11.75;3.95;;;17.10;93.30;;;;;;5033661;28;20044;-83
2023/06/12 02:40:41;;;;;;;11.10;3.90;;;16.80;93.30;;;;;;5034470;28;20131;-83
2023/06/12 02:43:07;;;;;;;10.40;4.00;;;16.70;93.60;;;;;;5052486;28;20048;-84
2023/06/12 02:45:32;;;;;;;9.77;3.70;;;16.40;93.50;;;;;;5033451;28;20051;-84
2023/06/12 02:48:10;;;;;;;9.95;3.80;;;16.30;93.60;;;;;;5052091;28;20037;-84
2023/06/12 02:50:36;;;;;;;11.13;3.75;;;16.90;94.60;;;;;;5034410;28;20132;-84
2023/06/12 02:53:01;;;;;;;12.57;3.97;;;16.20;93.90;;;;;;5033499;28;20137;-84
2023/06/12 02:55:27;;;;;;;10.50;3.70;;;17.10;94.10;;;;;;5033828;28;20425;-84
2023/06/12 02:58:05;;;;;;;11.20;3.78;;;16.30;94.00;;;;;;5052219;28;20453;-84
2023/06/12 03:00:31;;;;;;;9.52;4.00;;;16.00;94.10;;;;;;5033755;28;20052;-84
2023/06/12 03:02:57;;;;;;;16.98;4.40;;;16.00;94.20;;;;;;5027075;28;20049;-84
2023/06/12 03:05:25;;;;;;;10.70;3.85;;;16.00;94.20;;;;;;5033114;28;20132;-84
2023/06/12 03:07:52;;;;;;;9.98;3.95;;;15.90;94.40;;;;;;5034555;28;20120;-84
2023/06/12 03:10:18;;;;;;;10.95;4.18;;;15.90;94.60;;;;;;5051555;28;20051;-84
2023/06/12 03:12:44;;;;;;;11.85;4.03;;;15.90;94.80;;;;;;5051744;28;20120;-84
2023/06/12 03:15:09;;;;;;;10.13;3.88;;;15.90;94.70;;;;;;5034007;28;20470;-84
2023/06/12 03:17:35;;;;;;;10.45;3.67;;;15.90;94.80;;;;;;5035027;28;20429;-84
2023/06/12 03:20:04;;;;;;;13.20;3.90;;;16.40;95.10;;;;;;5033885;28;20060;-84
2023/06/12 03:22:32;;;;;;;10.68;4.20;;;16.00;95.10;;;;;;5035668;28;20103;-84
2023/06/12 03:24:58;;;;;;;10.82;3.88;;;16.30;95.50;;;;;;5056011;28;20037;-84
2023/06/12 03:27:25;;;;;;;11.82;4.13;;;15.80;95.40;;;;;;5051765;28;20401;-84
2023/06/12 03:29:50;;;;;;;13.32;4.05;;;15.70;95.50;;;;;;5037772;28;20057;-84
2023/06/12 03:32:16;;;;;;;11.20;4.18;;;16.10;95.60;;;;;;5055234;28;20037;-84
2023/06/12 03:34:42;;;;;;;11.10;4.50;;;15.60;95.60;;;;;;5037375;28;20047;-84
2023/06/12 03:37:08;;;;;;;9.57;3.92;;;15.70;95.70;;;;;;5055453;28;20090;-84
2023/06/12 03:39:33;;;;;;;11.80;4.30;;;15.70;95.90;;;;;;5038059;28;20086;-84
2023/06/12 03:41:59;;;;;;;11.73;4.10;;;15.60;96.00;;;;;;5042327;28;20046;-84
2023/06/12 03:44:25;;;;;;;10.35;4.28;;;15.80;96.20;;;;;;5017812;28;20104;-84
2023/06/12 03:46:50;;;;;;;11.70;4.40;;;15.60;96.20;;;;;;5018338;28;20048;-84
2023/06/12 03:49:16;;;;;;;15.13;4.85;;;15.50;96.30;;;;;;5034967;28;20140;-84
2023/06/12 03:51:42;;;;;;;13.27;4.40;;;15.60;96.40;;;;;;5017782;28;20049;-84
2023/06/12 03:54:08;;;;;;;10.27;4.22;;;15.50;96.70;;;;;;5035636;28;20049;-84
2023/06/12 03:56:34;;;;;;;17.35;5.35;;;15.90;96.80;;;;;;5042973;28;20040;-84
2023/06/12 03:59:02;;;;;;;13.18;4.60;;;15.60;96.90;;;;;;5037605;28;20045;-84
2023/06/12 04:01:28;;;;;;;10.82;4.32;;;16.20;97.20;;;;;;5027923;28;20110;-84
2023/06/12 04:03:57;;;;;;;10.95;4.40;;;15.80;97.20;;;;;;5033175;28;20460;-84
2023/06/12 04:06:24;;;;;;;10.15;4.18;;;15.60;97.20;;;;;;5054223;28;20112;-84
2023/06/12 04:08:51;;;;;;;12.75;4.35;;;15.60;97.50;;;;;;5036743;28;20063;-84
2023/06/12 04:11:19;;;;;;;10.73;4.60;;;15.60;97.50;;;;;;5054610;28;20048;-84
2023/06/12 04:16:10;;;;;;;11.82;4.50;;;15.60;97.90;;;;;;5088086;22;20396;-84
2023/06/12 04:18:37;;;;;;;10.60;4.20;;;16.40;98.10;;;;;;5017693;28;20099;-84
2023/06/12 04:21:04;;;;;;;10.18;4.20;;;15.70;97.90;;;;;;5035093;28;20053;-84
2023/06/12 04:23:31;;;;;;;11.75;4.63;;;15.70;98.00;;;;;;5016682;28;20128;-84
2023/06/12 04:26:06;;;;;;;10.73;4.32;;;15.70;98.20;;;;;;5035137;28;20057;-84
2023/06/12 04:28:32;;;;;;;15.02;4.50;;;15.70;98.20;;;;;;5035229;28;20046;-83
2023/06/12 04:30:59;;;;;;;11.75;4.53;;;15.80;98.20;;;;;;5034224;28;20095;-84
2023/06/12 04:33:30;;;;;;;12.23;4.85;;;16.40;98.50;;;;;;5034536;28;20136;-83
2023/06/12 04:36:02;;;;;;;12.63;4.60;;;15.80;98.40;;;;;;5017074;28;20081;-83
2023/06/12 04:38:30;;;;;;;10.80;4.40;;;15.80;98.40;;;;;;5033814;28;20104;-84
2023/06/12 04:40:58;;;;;;;12.32;5.38;;;16.10;98.60;;;;;;5031818;28;20061;-83
2023/06/12 04:43:24;;;;;;;13.30;5.07;;;16.60;98.80;;;;;;5034226;28;20451;-83
2023/06/12 04:45:52;;;;;;;10.80;5.03;;;15.90;99.10;;;;;;5009607;28;20046;-84
2023/06/12 04:48:19;;;;;;;10.95;4.95;;;15.90;98.90;;;;;;5034490;28;20049;-83
2023/06/12 04:50:48;;;;;;;12.27;5.40;;;16.00;99.10;;;;;;5015605;28;20056;-83
2023/06/12 04:53:17;;;;;;;10.88;5.00;;;16.00;99.00;;;;;;5016421;28;20053;-83
2023/06/12 04:55:50;;;;;;;14.68;5.28;;;16.00;99.10;;;;;;5016897;28;20057;-83
2023/06/12 04:58:18;;;;;;;11.43;5.03;;;16.30;99.10;;;;;;5033339;28;20056;-83
2023/06/12 05:00:47;;;;;;;12.02;5.68;;;16.10;99.10;;;;;;5009368;28;20034;-83
2023/06/12 05:03:17;;;;;;;11.65;5.13;;;16.20;99.30;;;;;;5013951;28;20056;-83
2023/06/12 05:05:46;;;;;;;11.05;5.32;;;16.30;99.40;;;;;;5033221;28;20493;-83
2023/06/12 05:08:13;;;;;;;15.55;5.47;;;16.20;99.30;;;;;;5033994;28;20073;-84
2023/06/12 05:10:42;;;;;;;11.45;5.10;;;16.30;99.30;;;;;;5034296;28;20037;-84
2023/06/12 05:13:08;;;;;;;12.10;5.65;;;16.20;99.50;;;;;;5033277;28;20045;-84
2023/06/12 05:15:33;;;;;;;11.63;5.45;;;16.30;99.60;;;;;;5033821;28;20520;-84
2023/06/12 05:18:00;;;;;;;11.10;5.60;;;16.90;99.70;;;;;;5034021;28;20060;-83
2023/06/12 05:20:26;;;;;;;14.38;5.25;;;16.30;99.60;;;;;;5015078;28;20053;-83
2023/06/12 05:22:52;;;;;;;11.68;5.30;;;16.40;99.70;;;;;;5015969;28;20481;-83
2023/06/12 05:25:18;;;;;;;12.40;5.50;;;16.40;99.90;;;;;;5015937;28;20107;-83
2023/06/12 05:27:43;;;;;;;12.48;5.93;;;16.50;99.80;;;;;;5032960;28;20034;-84
2023/06/12 05:30:09;;;;;;;14.23;5.50;;;16.70;99.90;;;;;;5015747;28;20041;-84
2023/06/12 05:32:35;;;;;;;12.82;5.45;;;16.70;99.90;;;;;;5033274;28;20402;-83
2023/06/12 05:35:02;;;;;;;12.32;5.57;;;16.90;99.90;;;;;;5033193;28;20038;-84
2023/06/12 05:37:28;;;;;;;12.75;5.55;;;17.30;99.90;;;;;;5033482;28;20045;-84
2023/06/12 05:39:54;;;;;;;12.15;5.68;;;17.20;99.90;;;;;;5032936;28;20091;-83
2023/06/12 05:42:19;;;;;;;11.65;5.45;;;17.30;99.90;;;;;;5033483;28;20038;-83
2023/06/12 05:47:42;;;;;;;12.90;5.75;;;17.00;99.80;;;;;;5125519;22;20048;-83
2023/06/12 05:50:08;;;;;;;12.20;6.10;;;17.30;99.70;;;;;;5015228;28;20041;-83
2023/06/12 05:52:49;;;;;;;14.93;6.45;;;17.40;99.60;;;;;;5022581;28;20099;-83
2023/06/12 05:55:17;;;;;;;13.25;6.00;;;17.50;99.50;;;;;;5031263;28;20045;-85
2023/06/12 05:57:42;;;;;;;12.95;6.43;;;17.80;99.30;;;;;;5035361;28;20060;-84
2023/06/12 06:00:10;;;;;;;12.32;6.15;;;17.80;99.20;;;;;;5046435;22;20517;-81
2023/06/12 06:02:37;;;;;;;12.77;5.95;;;17.80;99.10;;;;;;4987683;28;20050;-77
2023/06/12 06:05:02;;;;;;;15.07;6.80;;;17.80;99.00;;;;;;4995690;28;20198;-77
2023/06/12 06:07:28;;;;;;;13.27;6.53;;;17.90;98.90;;;;;;4995685;28;20576;-78
2023/06/12 06:09:54;;;;;;;14.00;6.65;;;18.40;99.10;;;;;;5012478;28;20528;-79
2023/06/12 06:12:20;;;;;;;15.52;6.70;;;18.10;98.90;;;;;;4995828;28;20107;-79
2023/06/12 06:14:45;;;;;;;13.82;6.50;;;18.30;98.90;;;;;;4995818;28;20085;-80
2023/06/12 06:17:11;;;;;;;13.35;6.35;;;18.30;98.80;;;;;;4994200;28;20041;-81
2023/06/12 06:19:37;;;;;;;18.65;6.60;;;18.20;98.80;;;;;;4995656;28;20038;-79
2023/06/12 06:22:04;;;;;;;13.82;6.20;;;18.40;98.80;;;;;;4994803;28;20050;-81
2023/06/12 06:24:30;;;;;;;12.75;6.63;;;18.60;98.80;;;;;;5012864;28;20041;-81
2023/06/12 06:26:56;;;;;;;13.43;6.70;;;18.80;98.70;;;;;;5013462;28;20045;-82
2023/06/12 06:29:21;;;;;;;12.65;7.00;;;19.20;98.60;;;;;;4995737;28;20046;-81
2023/06/12 06:31:47;;;;;;;12.93;6.75;;;18.90;98.40;;;;;;4997854;28;20080;-82
2023/06/12 06:34:14;;;;;;;13.93;6.65;;;19.50;98.20;;;;;;4995727;28;20077;-82
2023/06/12 06:36:39;;;;;;;16.55;7.10;;;19.10;97.90;;;;;;4994853;28;20057;-81
2023/06/12 06:39:05;;;;;;;12.60;6.90;;;19.10;97.90;;;;;;5013110;28;20045;-81
2023/06/12 06:41:31;;;;;;;15.38;6.38;;;19.30;97.90;;;;;;4995343;28;20049;-79
2023/06/12 06:43:56;;;;;;;15.85;6.72;;;19.50;98.10;;;;;;5012434;28;20444;-80
2023/06/12 06:46:22;;;;;;;18.00;6.20;;;19.50;98.00;;;;;;4994008;28;20045;-79
2023/06/12 06:48:47;;;;;;;13.43;6.40;;;19.70;97.80;;;;;;5012268;28;20038;-79
2023/06/12 06:51:13;;;;;;;12.95;6.60;;;19.80;97.70;;;;;;5011752;28;20042;-79
2023/06/12 06:53:38;;;;;;;13.00;6.18;;;20.00;97.80;;;;;;4995667;28;20037;-79
2023/06/12 06:56:04;;;;;;;12.82;6.88;;;20.20;97.70;;;;;;5012856;28;20116;-79
2023/06/12 06:58:30;;;;;;;20.20;7.18;;;20.30;97.90;;;;;;5011797;28;20064;-79
2023/06/12 07:00:56;;;;;;;13.55;6.38;;;20.40;97.80;;;;;;4993729;28;20060;-79
2023/06/12 07:03:21;;;;;;;12.82;6.18;;;20.50;97.90;;;;;;5005552;28;20042;-79
2023/06/12 07:05:47;;;;;;;12.38;6.60;;;20.70;97.70;;;;;;4994006;28;20124;-79
2023/06/12 07:08:13;;;;;;;11.80;5.95;;;20.80;97.40;;;;;;5011774;28;20045;-78
2023/06/12 07:10:38;;;;;;;12.55;7.15;;;20.90;97.00;;;;;;4994876;28;20053;-79
2023/06/12 07:13:04;;;;;;;11.85;6.82;;;21.10;96.80;;;;;;5011820;28;20125;-79
2023/06/12 07:15:29;;;;;;;13.93;7.05;;;21.30;96.60;;;;;;5012233;28;20481;-79
2023/06/12 07:17:55;;;;;;;12.57;6.47;;;21.50;96.40;;;;;;5006140;28;20077;-79
2023/06/12 07:20:21;;;;;;;11.63;6.75;;;21.60;95.80;;;;;;4993489;28;20496;-78
2023/06/12 07:22:46;;;;;;;12.38;7.15;;;21.70;95.50;;;;;;5012458;28;20038;-79
2023/06/12 07:25:12;;;;;;;15.20;6.63;;;22.00;95.50;;;;;;4994115;28;20116;-79
2023/06/12 07:27:38;;;;;;;12.55;6.85;;;22.10;95.30;;;;;;4994847;28;20030;-79
2023/06/12 07:30:05;;;;;;;14.70;7.47;;;22.20;95.00;;;;;;5012111;28;20050;-79
2023/06/12 07:32:31;;;;;;;12.43;6.80;;;22.40;95.00;;;;;;5011579;28;20092;-79
2023/06/12 07:34:57;;;;;;;11.25;6.75;;;22.50;94.60;;;;;;4994593;28;20478;-79
2023/06/12 07:37:23;;;;;;;12.20;6.82;;;22.60;94.40;;;;;;4994163;28;20133;-80
2023/06/12 07:39:48;;;;;;;12.68;6.65;;;22.70;94.20;;;;;;5010713;28;20054;-79
2023/06/12 07:42:14;;;;;;;12.80;7.53;;;22.80;94.10;;;;;;4977249;28;20466;-81
2023/06/12 07:44:40;;;;;;;15.18;6.60;;;23.00;94.00;;;;;;5012777;28;20046;-79
2023/06/12 07:47:06;;;;;;;14.05;7.35;;;23.20;93.80;;;;;;5011634;28;20046;-80
2023/06/12 07:49:32;;;;;;;13.98;6.53;;;23.30;93.40;;;;;;5012586;28;20044;-79
2023/06/12 07:51:58;;;;;;;11.55;6.85;;;23.40;93.30;;;;;;5012333;28;20042;-80
2023/06/12 07:54:24;;;;;;;12.85;6.10;;;23.60;93.00;;;;;;4993695;28;20046;-80
2023/06/12 07:56:53;;;;;;;13.40;6.35;;;23.70;92.50;;;;;;4994779;28;20049;-80
2023/06/12 07:59:19;;;;;;;16.83;6.70;;;23.80;92.10;;;;;;5012262;28;20053;-80
2023/06/12 08:01:45;;;;;;;12.65;6.00;;;24.00;91.80;;;;;;4986335;28;20192;-80
2023/06/12 08:04:11;;;;;;;11.10;5.93;;;24.20;91.70;;;;;;5012175;28;20121;-80
2023/06/12 08:06:42;;;;;;;12.88;6.10;;;24.30;91.40;;;;;;5012469;28;20049;-81
2023/06/12 08:09:11;;;;;;;13.25;5.40;;;24.50;91.00;;;;;;4994490;28;20042;-84
2023/06/12 08:11:37;;;;;;;11.88;5.85;;;24.60;90.90;;;;;;5016229;28;20077;-83
2023/06/12 08:14:03;;;;;;;10.35;5.50;;;24.80;91.00;;;;;;5016040;28;20132;-83
2023/06/12 08:16:28;;;;;;;12.18;5.97;;;24.90;90.30;;;;;;4996739;28;20132;-83
2023/06/12 08:18:54;;;;;;;11.43;5.50;;;24.90;90.00;;;;;;4998629;28;20045;-82
2023/06/12 08:21:19;;;;;;;10.85;5.85;;;25.00;89.70;;;;;;4997699;28;20493;-83
2023/06/12 08:23:45;;;;;;;11.18;5.60;;;25.10;89.00;;;;;;4997408;28;20044;-83
2023/06/12 08:26:11;;;;;;;10.32;5.78;;;25.20;88.50;;;;;;5015455;28;20056;-83
2023/06/12 08:28:37;;;;;;;11.65;5.78;;;25.40;88.30;;;;;;5015081;28;20096;-83
2023/06/12 08:31:03;;;;;;;11.40;5.80;;;25.40;87.40;;;;;;4997886;28;20478;-84
2023/06/12 08:33:30;;;;;;;10.73;5.70;;;25.50;86.90;;;;;;5015382;28;20137;-84
2023/06/12 08:35:59;;;;;;;11.35;5.80;;;25.70;87.00;;;;;;5014897;28;20053;-84
2023/06/12 08:38:25;;;;;;;12.68;5.30;;;25.70;86.50;;;;;;5015204;28;20474;-83
2023/06/12 08:40:58;;;;;;;11.27;5.95;;;25.90;86.20;;;;;;4997741;28;20088;-82
2023/06/12 08:43:23;;;;;;;;;;;26.00;86.20;;;;;;5014870;28;20044;-83
2023/06/12 08:45:51;;;;;;;11.07;5.50;;;26.20;86.00;;;;;;5015286;28;19921;-82
2023/06/12 08:48:19;;;;;;;12.90;6.05;;;26.40;86.40;;;;;;4997308;28;20042;-82
2023/06/12 08:50:46;;;;;;;12.18;5.70;;;26.60;85.60;;;;;;5014343;28;20046;-81
2023/06/12 08:53:12;;;;;;;10.82;5.93;;;26.80;85.90;;;;;;5013149;28;20073;-82
2023/06/12 08:55:41;;;;;;;12.32;6.22;;;27.00;85.40;;;;;;5015012;28;20049;-82
2023/06/12 08:58:08;;;;;;;13.07;5.82;;;27.10;85.00;;;;;;5014036;28;20038;-82
2023/06/12 09:00:34;;;;;;;11.73;6.60;;;27.30;84.50;;;;;;4996791;28;20053;-85
2023/06/12 09:03:00;;;;;;;10.77;5.63;;;27.40;83.40;;;;;;4988875;28;20053;-83
2023/06/12 09:05:33;;;;;;;10.77;5.90;;;27.50;83.10;;;;;;4995696;28;20056;-82
2023/06/12 09:08:04;;;;;;;12.95;5.82;;;27.50;81.10;;;;;;4994228;28;20116;-81
2023/06/12 09:10:31;;;;;;;10.60;5.95;;;27.50;81.80;;;;;;4996822;28;20061;-81
2023/06/12 09:12:57;;;;;;;11.35;5.85;;;27.60;81.20;;;;;;4995871;28;20046;-81
2023/06/12 09:15:23;;;;;;;11.10;5.88;;;27.70;80.60;;;;;;5013988;28;20038;-81
2023/06/12 09:17:51;;;;;;;12.43;5.97;;;27.90;79.90;;;;;;5013613;28;20046;-81
2023/06/12 09:20:26;;;;;;;10.13;5.88;;;28.10;79.50;;;;;;5013524;28;20405;-81
2023/06/12 09:22:51;;;;;;;11.35;6.05;;;28.20;78.60;;;;;;4996718;28;20049;-81
2023/06/12 09:25:21;;;;;;;11.48;6.22;;;28.40;78.60;;;;;;4995681;28;20508;-81
2023/06/12 09:27:47;;;;;;;10.18;6.43;;;28.50;77.70;;;;;;5014237;28;20128;-81
2023/06/12 09:30:13;;;;;;;12.95;6.10;;;28.50;77.70;;;;;;4996045;28;20049;-81
2023/06/12 09:32:45;;;;;;;12.57;6.32;;;28.60;77.20;;;;;;5013047;28;20390;-81
2023/06/12 09:35:12;;;;;;;25.10;8.33;;;28.70;76.40;;;;;;5013792;28;20038;-81
2023/06/12 09:37:41;;;;;;;17.67;7.60;;;28.90;76.30;;;;;;4996139;28;20292;-81
2023/06/12 09:40:11;;;;;;;11.82;6.18;;;29.00;76.30;;;;;;5012463;28;20046;-82
2023/06/12 09:42:38;;;;;;;12.00;6.32;;;29.20;75.30;;;;;;4995884;28;20278;-83
2023/06/12 09:45:20;;;;;;;10.82;6.90;;;29.30;74.30;;;;;;4995744;28;20456;-82
2023/06/12 09:47:51;;;;;;;12.93;6.38;;;29.40;72.50;;;;;;4995471;28;20405;-79
2023/06/12 09:50:19;;;;;;;11.43;6.68;;;29.50;71.80;;;;;;4996452;28;20133;-80
2023/06/12 09:52:46;;;;;;;10.27;6.32;;;29.50;72.20;;;;;;5014048;28;20038;-79
2023/06/12 09:55:16;;;;;;;10.80;6.40;;;29.50;72.00;;;;;;5012893;28;20508;-79
2023/06/12 09:57:45;;;;;;;12.45;6.93;;;29.60;72.00;;;;;;4996629;28;20046;-79
2023/06/12 10:00:13;;;;;;;12.65;6.07;;;29.80;71.70;;;;;;5012637;28;20081;-79
2023/06/12 10:02:41;;;;;;;11.32;6.40;;;30.00;70.90;;;;;;4972557;28;20037;-79
2023/06/12 10:05:16;;;;;;;11.80;6.40;;;30.10;70.00;;;;;;4996033;28;20485;-79
2023/06/12 10:07:47;;;;;;;11.45;6.35;;;30.10;68.70;;;;;;5012875;28;20612;-79
2023/06/12 10:10:14;;;;;;;10.30;6.47;;;30.10;67.90;;;;;;4995286;28;20508;-79
2023/06/12 10:12:41;;;;;;;11.55;6.45;;;30.10;68.20;;;;;;5013480;28;20034;-81
2023/06/12 10:15:08;;;;;;;11.48;6.30;;;30.30;67.20;;;;;;5012333;28;20050;-80
2023/06/12 10:17:35;;;;;;;10.93;6.60;;;30.50;66.90;;;;;;4994770;28;20038;-80
2023/06/12 10:20:06;;;;;;;11.52;6.53;;;30.50;65.90;;;;;;4995215;28;20103;-80
2023/06/12 10:22:32;;;;;;;11.07;6.55;;;30.40;63.60;;;;;;4992829;28;20041;-80
2023/06/12 10:24:58;;;;;;;11.45;6.28;;;30.30;64.90;;;;;;5012555;28;20057;-81
2023/06/12 10:27:25;;;;;;;11.02;6.53;;;30.20;65.30;;;;;;4994837;28;20490;-80
2023/06/12 10:29:58;;;;;;;10.60;6.15;;;30.10;64.90;;;;;;5004764;28;20166;-80
2023/06/12 10:32:25;;;;;;;11.93;6.82;;;29.70;64.40;;;;;;4995003;28;20049;-81
2023/06/12 10:34:54;;;;;;;11.32;6.25;;;29.30;65.20;;;;;;5013228;28;20037;-81
2023/06/12 10:37:44;;;;;;;11.15;6.45;;;29.50;65.60;;;;;;4994561;28;20050;-81
2023/06/12 10:40:19;;;;;;;10.13;6.20;;;29.80;66.20;;;;;;4997338;28;20490;-80
2023/06/12 10:42:54;;;;;;;11.85;6.82;;;30.10;66.10;;;;;;4992776;28;20045;-81
2023/06/12 10:45:27;;;;;;;12.05;6.82;;;30.10;65.30;;;;;;4993283;28;20042;-81
2023/06/12 10:48:04;;;;;;;10.93;6.65;;;30.60;66.00;;;;;;4993507;28;20572;-82
2023/06/12 10:50:34;;;;;;;10.93;7.13;;;30.70;65.00;;;;;;4975284;28;20104;-81
2023/06/12 10:53:14;;;;;;;11.07;6.80;;;30.60;64.90;;;;;;4979085;28;20057;-81
2023/06/12 10:55:44;;;;;;;10.98;6.50;;;31.00;64.70;;;;;;5004261;28;20386;-82
2023/06/12 10:58:18;;;;;;;10.60;6.53;;;31.30;64.70;;;;;;5004683;28;20429;-80
2023/06/12 11:00:49;;;;;;;11.73;6.60;;;31.20;64.60;;;;;;4995145;28;20141;-79
2023/06/12 11:03:21;;;;;;;11.52;6.95;;;31.40;64.00;;;;;;4994437;28;20107;-79
2023/06/12 11:05:47;;;;;;;11.15;6.63;;;31.20;63.90;;;;;;5013216;28;20062;-80
2023/06/12 11:08:14;;;;;;;12.93;6.75;;;30.80;63.90;;;;;;5002119;28;20041;-79
2023/06/12 11:10:40;;;;;;;12.02;6.65;;;30.30;63.80;;;;;;4999177;28;20521;-79
2023/06/12 11:13:05;;;;;;;10.85;6.85;;;29.90;64.10;;;;;;4981019;28;20046;-80
2023/06/12 11:15:33;;;;;;;17.83;7.53;;;30.10;64.60;;;;;;5004299;28;20046;-79
2023/06/12 11:17:59;;;;;;;11.60;7.55;;;30.30;64.40;;;;;;4987618;28;20091;-80
2023/06/12 11:20:25;;;;;;;12.57;7.18;;;30.40;64.00;;;;;;5011966;28;20041;-79
2023/06/12 11:23:01;;;;;;;13.10;7.18;;;30.60;64.80;;;;;;5012490;28;20042;-79
2023/06/12 11:25:30;;;;;;;11.05;6.90;;;30.80;63.80;;;;;;4994304;28;20050;-79
2023/06/12 11:27:56;;;;;;;12.07;7.22;;;31.20;63.90;;;;;;4995363;28;20128;-78
2023/06/12 11:30:24;;;;;;;11.43;6.82;;;31.60;64.50;;;;;;5012514;28;20113;-79
2023/06/12 11:32:50;;;;;;;12.00;7.45;;;31.70;63.00;;;;;;4994099;28;20054;-79
2023/06/12 11:35:16;;;;;;;11.95;7.00;;;31.80;62.90;;;;;;4994791;28;20045;-79
2023/06/12 11:37:41;;;;;;;11.77;7.18;;;31.90;62.90;;;;;;5012919;28;20421;-79
2023/06/12 11:40:10;;;;;;;11.57;7.13;;;32.20;61.70;;;;;;5011525;28;20092;-81
2023/06/12 11:42:38;;;;;;;10.35;6.78;;;32.20;61.40;;;;;;4995334;28;20108;-81
2023/06/12 11:45:15;;;;;;;11.27;7.22;;;32.30;61.80;;;;;;4997247;28;20125;-81
2023/06/12 11:47:43;;;;;;;10.60;6.85;;;32.20;61.30;;;;;;5015762;28;20095;-81
2023/06/12 11:50:11;;;;;;;12.77;7.00;;;32.20;62.00;;;;;;4998500;28;20057;-81
2023/06/12 11:52:39;;;;;;;14.15;7.18;;;32.20;61.50;;;;;;5008657;28;20046;-81
2023/06/12 11:55:11;;;;;;;11.02;7.45;;;32.50;61.20;;;;;;4998657;28;20048;-82
2023/06/12 11:57:37;;;;;;;12.15;7.43;;;32.60;60.90;;;;;;5016667;28;20042;-81
2023/06/12 12:00:14;;;;;;;10.45;6.95;;;32.30;60.50;;;;;;4997587;28;20053;-81
2023/06/12 12:02:49;;;;;;;11.55;6.68;;;32.40;60.40;;;;;;4998644;28;20541;-80
2023/06/12 12:05:18;;;;;;;12.38;6.85;;;32.50;59.80;;;;;;4998083;28;20069;-80
2023/06/12 12:07:48;;;;;;;10.38;6.88;;;32.60;60.10;;;;;;5015592;28;20084;-80
2023/06/12 12:10:14;;;;;;;9.35;6.22;;;32.80;60.40;;;;;;4998436;28;20485;-80
2023/06/12 12:12:51;;;;;;;10.48;6.80;;;33.00;60.40;;;;;;4998325;28;20531;-80
2023/06/12 12:15:18;;;;;;;12.80;7.30;;;33.20;59.60;;;;;;5014984;28;20156;-79
2023/06/12 12:17:45;;;;;;;15.32;6.70;;;33.00;59.80;;;;;;5015762;28;20493;-80
2023/06/12 12:20:15;;;;;;;10.75;6.80;;;32.60;59.90;;;;;;4997828;28;20482;-80
2023/06/12 12:22:42;;;;;;;10.77;6.90;;;32.20;59.90;;;;;;4997633;28;20054;-80
2023/06/12 12:25:09;;;;;;;11.75;7.03;;;31.50;60.30;;;;;;5015619;28;20037;-80
2023/06/12 12:27:36;;;;;;;10.60;6.75;;;31.40;60.30;;;;;;5015940;28;20046;-80
2023/06/12 12:30:04;;;;;;;11.73;6.85;;;31.50;60.30;;;;;;5015014;28;20188;-80
2023/06/12 12:32:29;;;;;;;10.60;6.85;;;31.80;60.00;;;;;;5014965;28;20529;-80
2023/06/12 12:34:57;;;;;;;9.60;6.20;;;32.10;60.00;;;;;;4997222;28;20053;-80
2023/06/12 12:37:22;;;;;;;11.55;6.40;;;32.50;60.80;;;;;;4997483;28;20478;-80
2023/06/12 12:39:48;;;;;;;11.30;6.82;;;32.40;60.00;;;;;;4997817;28;20045;-79
2023/06/12 12:42:14;;;;;;;11.95;6.97;;;32.70;60.40;;;;;;5014613;28;20394;-80
2023/06/12 12:44:39;;;;;;;10.77;6.88;;;32.80;60.00;;;;;;4997585;28;20096;-79
2023/06/12 12:47:06;;;;;;;11.82;6.72;;;33.10;59.80;;;;;;5010246;28;20049;-79
2023/06/12 12:49:31;;;;;;;11.10;6.85;;;33.30;59.30;;;;;;4994864;28;20045;-79
2023/06/12 12:51:57;;;;;;;11.25;6.72;;;33.20;59.00;;;;;;4997587;28;20445;-80